This is the latest recevied weather packets stored in our database for station/object PY5TG-13. If no packets are shown the sender has not sent any weather packets the latest 10 day(s).
| Time | Temp. | Humidity | Pressure | Rain* | Wind** | Luminosity | Snow |
|---|---|---|---|---|---|---|---|
| 1778176872 | 23.89° C | - | - | 0 mm | - | - | - |
| 1778176808 | 23.89° C | 68% | 1008.6 hPa | 0 mm | - | 133 W/m² | - |
| 1778176212 | 23.89° C | - | - | 0 mm | - | - | - |
| 1778175612 | 24.44° C | 66% | 1008.5 hPa | 0 mm | - | 209 W/m² | - |
| 1778175013 | 25° C | 63% | 1008.3 hPa | 0 mm | - | 263 W/m² | - |
| 1778174472 | 25° C | 64% | 1008.6 hPa | 0 mm | - | 287 W/m² | - |
| 1778174408 | 25° C | 63% | 1008.7 hPa | 0 mm | - | 290 W/m² | - |
| 1778173815 | 25° C | 63% | 1008.6 hPa | 0 mm | - | 217 W/m² | - |
| 1778173272 | 25° C | 63% | 1008.9 hPa | 0 mm | - | 313 W/m² | - |
| 1778173207 | 25° C | 62% | 1008.8 hPa | 0 mm | - | 325 W/m² | - |
| 1778172612 | 24.44° C | 64% | 1009.1 hPa | 0 mm | - | 286 W/m² | - |
| 1778172012 | 25.56° C | 62% | 1008.7 hPa | 0 mm | - | 334 W/m² | - |
| 1778171414 | 25.56° C | 65% | 1009.1 hPa | 0 mm | - | 324 W/m² | - |
| 1778170814 | 25° C | 64% | 1009.4 hPa | 0 mm | - | 338 W/m² | - |
| 1778170213 | 25° C | 62% | 1009.9 hPa | 0 mm | - | 356 W/m² | - |
| 1778169615 | 25.56° C | 61% | 1009.7 hPa | 0 mm | - | 373 W/m² | - |
| 1778169013 | 25° C | 65% | 1010 hPa | 0 mm | - | 373 W/m² | - |
| 1778168414 | 24.44° C | 66% | 1010.4 hPa | 0 mm | - | 368 W/m² | - |
| 1778168038 | 24.44° C | 64% | 1010.7 hPa | 0 mm | - | 372 W/m² | - |
| 1778167814 | 24.44° C | 66% | 1010.7 hPa | 0 mm | - | 375 W/m² | - |
| 1778167213 | 24.44° C | 65% | 1010.9 hPa | 0 mm | - | 371 W/m² | - |
| 1778166612 | 24.44° C | 65% | 1010.9 hPa | 0 mm | - | 364 W/m² | - |
| 1778166013 | 24.44° C | 65% | 1011.3 hPa | 0 mm | - | 361 W/m² | - |
| 1778165413 | 23.89° C | 67% | 1011.4 hPa | 0 mm | - | 341 W/m² | - |
| 1778164872 | 23.89° C | 64% | 1011.7 hPa | 0 mm | - | 328 W/m² | - |
* Rain latest hour (hover to see other rain measurements)
** Current wind speed in m/s (hover to see current wind gust speed)